createdAt,value
2023-05-10T00:01:02.041Z,100436.20
2023-05-10T00:03:29.004Z,100434.06
2023-05-10T00:05:55.936Z,100433.86
2023-05-10T00:08:22.752Z,100439.15
2023-05-10T00:10:49.924Z,100440.80
2023-05-10T00:13:16.858Z,100433.09
2023-05-10T00:15:43.679Z,100429.63
2023-05-10T00:18:10.504Z,100437.61
2023-05-10T00:20:37.324Z,100434.65
2023-05-10T00:23:04.143Z,100434.12
2023-05-10T00:25:30.943Z,100433.79
2023-05-10T00:27:58.371Z,100429.29
2023-05-10T00:30:25.367Z,100429.55
2023-05-10T00:32:52.970Z,100427.10
2023-05-10T00:35:19.969Z,100427.27
2023-05-10T00:37:46.828Z,100426.40
2023-05-10T00:40:14.169Z,100425.02
2023-05-10T00:42:42.340Z,100429.83
2023-05-10T00:45:09.692Z,100425.04
2023-05-10T00:47:37.027Z,100428.98
2023-05-10T00:50:04.577Z,100426.95
2023-05-10T00:52:32.032Z,100423.02
2023-05-10T00:54:59.470Z,100423.86
2023-05-10T00:57:26.328Z,100423.16
2023-05-10T00:59:53.277Z,100422.65
2023-05-10T01:02:20.182Z,100422.65
2023-05-10T01:04:47.493Z,100420.95
2023-05-10T01:07:14.427Z,100424.36
2023-05-10T01:09:41.239Z,100426.56
2023-05-10T01:12:08.469Z,100425.77
2023-05-10T01:14:37.346Z,100430.52
2023-05-10T01:17:04.976Z,100431.29
2023-05-10T01:19:31.820Z,100426.61
2023-05-10T01:22:52.691Z,100426.75
2023-05-10T01:25:38.131Z,100426.41
2023-05-10T01:28:17.930Z,100426.25
2023-05-10T01:30:55.383Z,100423.75
2023-05-10T01:33:35.802Z,100425.25
2023-05-10T01:36:04.880Z,100424.98
2023-05-10T01:38:38.418Z,100420.81
2023-05-10T01:41:19.917Z,100420.83
2023-05-10T01:44:09.606Z,100418.21
2023-05-10T01:46:40.250Z,100415.77
2023-05-10T01:49:28.731Z,100416.52
2023-05-10T01:51:58.369Z,100412.27
2023-05-10T01:54:25.733Z,100413.64
2023-05-10T01:57:04.932Z,100415.84
2023-05-10T01:59:37.577Z,100413.23
2023-05-10T02:02:04.606Z,100411.10
2023-05-10T02:04:31.404Z,100413.46
2023-05-10T02:06:58.206Z,100414.10
2023-05-10T02:09:25.847Z,100412.73
2023-05-10T02:11:52.743Z,100410.64
2023-05-10T02:14:19.614Z,100410.75
2023-05-10T02:16:46.541Z,100410.19
2023-05-10T02:19:13.489Z,100411.51
2023-05-10T02:21:40.774Z,100412.38
2023-05-10T02:24:07.714Z,100414.64
2023-05-10T02:26:34.558Z,100415.05
2023-05-10T02:29:01.383Z,100413.40
2023-05-10T02:31:28.240Z,100415.56
2023-05-10T02:33:55.115Z,100415.67
2023-05-10T02:36:22.194Z,100417.48
2023-05-10T02:38:49.088Z,100416.17
2023-05-10T02:41:16.688Z,100416.59
2023-05-10T02:43:43.503Z,100415.77
2023-05-10T02:46:10.385Z,100415.81
2023-05-10T02:48:37.228Z,100415.91
2023-05-10T02:51:06.791Z,100414.19
2023-05-10T02:53:35.837Z,100417.70
2023-05-10T02:56:05.832Z,100418.52
2023-05-10T02:58:32.741Z,100420.33
2023-05-10T03:01:00.645Z,100415.31
2023-05-10T03:03:27.446Z,100420.85
2023-05-10T03:05:57.711Z,100421.61
2023-05-10T03:08:25.128Z,100424.79
2023-05-10T03:11:22.090Z,100421.73
2023-05-10T03:14:13.642Z,100421.66
2023-05-10T03:16:48.153Z,100426.43
2023-05-10T03:19:21.267Z,100423.51
2023-05-10T03:21:51.090Z,100426.73
2023-05-10T03:24:17.924Z,100427.56
2023-05-10T03:26:45.461Z,100424.23
2023-05-10T03:29:15.192Z,100425.89
2023-05-10T03:31:42.081Z,100425.77
2023-05-10T03:34:08.996Z,100422.40
2023-05-10T03:36:36.205Z,100426.37
2023-05-10T03:39:03.614Z,100422.16
2023-05-10T03:41:31.201Z,100427.16
2023-05-10T03:43:58.032Z,100430.86
2023-05-10T03:46:25.022Z,100431.64
2023-05-10T03:48:52.024Z,100435.48
2023-05-10T03:51:18.904Z,100436.95
2023-05-10T03:53:45.897Z,100438.42
2023-05-10T03:56:12.789Z,100437.47
2023-05-10T03:58:39.732Z,100439.10
2023-05-10T04:01:06.537Z,100437.65
2023-05-10T04:03:33.511Z,100436.88
2023-05-10T04:06:02.230Z,100437.85
2023-05-10T04:08:30.038Z,100443.82
2023-05-10T04:11:12.690Z,100439.34
2023-05-10T04:13:39.581Z,100444.92
2023-05-10T04:16:06.541Z,100440.80
2023-05-10T04:18:33.498Z,100442.63
2023-05-10T04:21:00.457Z,100440.73
2023-05-10T04:23:28.339Z,100439.71
2023-05-10T04:26:01.141Z,100437.96
2023-05-10T04:28:28.437Z,100438.40
2023-05-10T04:31:02.610Z,100432.80
2023-05-10T04:33:29.682Z,100433.75
2023-05-10T04:35:56.451Z,100434.61
2023-05-10T04:38:23.264Z,100432.55
2023-05-10T04:40:50.099Z,100434.14
2023-05-10T04:43:16.914Z,100431.92
2023-05-10T04:45:43.647Z,100430.36
2023-05-10T04:48:10.584Z,100425.33
2023-05-10T04:50:37.670Z,100421.91
2023-05-10T04:53:04.474Z,100423.34
2023-05-10T04:55:31.234Z,100419.98
2023-05-10T04:57:58.459Z,100419.19
2023-05-10T05:00:25.852Z,100415.19
2023-05-10T05:02:52.897Z,100416.52
2023-05-10T05:05:19.868Z,100420.27
2023-05-10T05:07:46.817Z,100421.24
2023-05-10T05:10:13.809Z,100421.16
2023-05-10T05:12:40.650Z,100421.46
2023-05-10T05:15:09.937Z,100423.88
2023-05-10T05:17:36.891Z,100417.34
2023-05-10T05:20:04.271Z,100416.61
2023-05-10T05:22:31.095Z,100416.11
2023-05-10T05:24:59.169Z,100416.06
2023-05-10T05:27:27.370Z,100417.39
2023-05-10T05:29:55.026Z,100417.59
2023-05-10T05:32:22.013Z,100414.69
2023-05-10T05:34:49.065Z,100418.20
2023-05-10T05:37:16.668Z,100420.41
2023-05-10T05:39:43.701Z,100416.18
2023-05-10T05:42:10.982Z,100418.52
2023-05-10T05:44:38.016Z,100416.52
2023-05-10T05:47:05.136Z,100412.41
2023-05-10T05:49:31.891Z,100411.65
2023-05-10T05:52:02.968Z,100412.41
2023-05-10T05:54:29.960Z,100412.06
2023-05-10T05:57:01.330Z,100409.40
2023-05-10T05:59:28.632Z,100408.45
2023-05-10T06:01:55.637Z,100402.89
2023-05-10T06:04:22.667Z,100405.78
2023-05-10T06:06:49.612Z,100398.98
2023-05-10T06:09:17.022Z,100396.82
2023-05-10T06:11:43.958Z,100397.73
2023-05-10T06:14:10.872Z,100400.55
2023-05-10T06:16:37.828Z,100396.66
2023-05-10T06:19:04.928Z,100400.33
2023-05-10T06:21:31.765Z,100397.83
2023-05-10T06:23:58.503Z,100401.00
2023-05-10T06:26:26.040Z,100396.52
2023-05-10T06:28:52.898Z,100397.08
2023-05-10T06:31:19.878Z,100400.92
2023-05-10T06:33:46.837Z,100403.52
2023-05-10T06:36:14.419Z,100399.20
2023-05-10T06:38:41.237Z,100401.80
2023-05-10T06:41:08.020Z,100406.65
2023-05-10T06:43:34.776Z,100404.41
2023-05-10T06:46:01.561Z,100409.79
2023-05-10T06:48:28.615Z,100407.70
2023-05-10T06:50:55.461Z,100411.15
2023-05-10T06:53:22.330Z,100410.64
2023-05-10T06:55:50.312Z,100407.02
2023-05-10T06:58:17.327Z,100410.31
2023-05-10T07:00:44.997Z,100406.52
2023-05-10T07:03:12.019Z,100404.98
2023-05-10T07:05:39.174Z,100408.27
2023-05-10T07:08:06.267Z,100410.73
2023-05-10T07:10:33.950Z,100417.13
2023-05-10T07:13:02.455Z,100403.77
2023-05-10T07:15:29.742Z,100405.16
2023-05-10T07:17:56.674Z,100410.70
2023-05-10T07:20:23.713Z,100408.27
2023-05-10T07:22:50.552Z,100406.20
2023-05-10T07:25:17.522Z,100406.04
2023-05-10T07:27:44.639Z,100406.41
2023-05-10T07:30:12.084Z,100409.71
2023-05-10T07:32:40.685Z,100404.17
2023-05-10T07:35:07.959Z,100408.32
2023-05-10T07:37:34.914Z,100405.20
2023-05-10T07:40:02.199Z,100407.80
2023-05-10T07:42:29.022Z,100405.90
2023-05-10T07:44:56.000Z,100402.43
2023-05-10T07:47:22.784Z,100397.59
2023-05-10T07:49:49.637Z,100393.95
2023-05-10T07:52:16.483Z,100399.33
2023-05-10T07:54:43.269Z,100396.50
2023-05-10T07:57:10.273Z,100392.02
2023-05-10T07:59:37.525Z,100393.90
2023-05-10T08:02:04.303Z,100389.45
2023-05-10T08:04:31.230Z,100387.37
2023-05-10T08:06:57.996Z,100385.64
2023-05-10T08:09:25.433Z,100386.67
2023-05-10T08:11:52.418Z,100384.93
2023-05-10T08:14:19.354Z,100387.69
2023-05-10T08:16:46.210Z,100389.59
2023-05-10T08:19:13.070Z,100381.23
2023-05-10T08:21:41.565Z,100389.16
2023-05-10T08:24:08.403Z,100387.41
2023-05-10T08:26:35.350Z,100386.21
2023-05-10T08:29:02.158Z,100388.45
2023-05-10T08:31:28.985Z,100388.64
2023-05-10T08:33:55.938Z,100391.59
2023-05-10T08:36:25.166Z,100388.66
2023-05-10T08:38:52.786Z,100391.46
2023-05-10T08:41:22.765Z,100395.30
2023-05-10T08:43:49.535Z,100395.46
2023-05-10T08:46:18.498Z,100395.61
2023-05-10T08:48:46.164Z,100397.85
2023-05-10T08:51:23.762Z,100391.77
2023-05-10T08:53:50.594Z,100398.70
2023-05-10T08:56:18.847Z,100394.04
2023-05-10T08:58:45.633Z,100394.23
2023-05-10T09:01:12.473Z,100394.58
2023-05-10T09:03:42.455Z,100395.82
2023-05-10T09:06:09.313Z,100393.76
2023-05-10T09:08:36.301Z,100390.66
2023-05-10T09:11:04.219Z,100388.24
2023-05-10T09:13:30.994Z,100385.29
2023-05-10T09:16:02.095Z,100387.02
2023-05-10T09:18:33.854Z,100385.63
2023-05-10T09:21:00.638Z,100384.05
2023-05-10T09:23:33.244Z,100384.21
2023-05-10T09:26:06.472Z,100390.44
2023-05-10T09:28:54.387Z,100386.61
2023-05-10T09:31:21.247Z,100384.89
2023-05-10T09:33:49.544Z,100386.45
2023-05-10T09:36:16.586Z,100381.95
2023-05-10T09:38:52.848Z,100378.13
2023-05-10T09:41:23.878Z,100378.84
2023-05-10T09:43:50.742Z,100382.30
2023-05-10T09:46:17.668Z,100379.18
2023-05-10T09:48:46.599Z,100378.64
2023-05-10T09:51:31.591Z,100376.90
2023-05-10T09:54:15.843Z,100379.14
2023-05-10T09:56:42.718Z,100376.36
2023-05-10T09:59:11.857Z,100374.96
2023-05-10T10:01:39.348Z,100375.98
2023-05-10T10:04:06.819Z,100375.11
2023-05-10T10:06:40.348Z,100376.14
2023-05-10T10:09:07.455Z,100376.46
2023-05-10T10:11:38.451Z,100378.36
2023-05-10T10:14:06.181Z,100371.59
2023-05-10T10:16:33.191Z,100372.31
2023-05-10T10:19:00.175Z,100370.92
2023-05-10T10:21:27.192Z,100370.92
2023-05-10T10:23:54.304Z,100370.23
2023-05-10T10:26:22.139Z,100368.12
2023-05-10T10:29:01.252Z,100371.42
2023-05-10T10:31:28.061Z,100372.80
2023-05-10T10:34:08.132Z,100370.88
2023-05-10T10:36:46.234Z,100368.98
2023-05-10T10:39:13.359Z,100364.31
2023-05-10T10:41:44.127Z,100361.37
2023-05-10T10:44:23.426Z,100362.24
2023-05-10T10:47:25.673Z,100357.92
2023-05-10T10:50:01.700Z,100359.34
2023-05-10T10:52:33.936Z,100351.91
2023-05-10T10:55:02.428Z,100348.13
2023-05-10T10:57:31.281Z,100346.73
2023-05-10T11:00:24.143Z,100346.24
2023-05-10T11:02:57.156Z,100345.39
2023-05-10T11:05:24.915Z,100346.59
2023-05-10T11:07:55.919Z,100340.35
2023-05-10T11:10:23.426Z,100341.06
2023-05-10T11:12:54.625Z,100332.77
2023-05-10T11:15:21.739Z,100335.04
2023-05-10T11:17:53.160Z,100335.04
2023-05-10T11:20:25.955Z,100333.14
2023-05-10T11:22:53.551Z,100332.63
2023-05-10T11:25:20.873Z,100333.48
2023-05-10T11:27:50.866Z,100329.70
2023-05-10T11:30:17.935Z,100330.58
2023-05-10T11:32:45.222Z,100330.22
2023-05-10T11:35:12.431Z,100331.26
2023-05-10T11:37:44.745Z,100327.79
2023-05-10T11:40:12.127Z,100329.86
2023-05-10T11:42:39.321Z,100329.32
2023-05-10T11:45:06.992Z,100329.83
2023-05-10T11:47:33.882Z,100330.36
2023-05-10T11:50:01.121Z,100328.81
2023-05-10T11:52:27.877Z,100333.50
2023-05-10T11:54:55.399Z,100328.13
2023-05-10T11:57:22.571Z,100329.34
2023-05-10T11:59:54.261Z,100332.80
2023-05-10T12:02:21.246Z,100329.35
2023-05-10T12:04:48.087Z,100325.89
2023-05-10T12:07:14.937Z,100327.97
2023-05-10T12:09:46.000Z,100326.23
2023-05-10T12:12:18.904Z,100326.77
2023-05-10T12:14:45.679Z,100327.45
2023-05-10T12:17:13.804Z,100321.39
2023-05-10T12:19:40.740Z,100323.47
2023-05-10T12:22:07.584Z,100319.98
2023-05-10T12:24:38.651Z,100319.98
2023-05-10T12:27:08.470Z,100320.66
2023-05-10T12:29:35.255Z,100327.77
2023-05-10T12:32:02.166Z,100326.91
2023-05-10T12:34:33.821Z,100323.29
2023-05-10T12:37:00.972Z,100325.88
2023-05-10T12:39:27.945Z,100322.23
2023-05-10T12:41:54.801Z,100312.37
2023-05-10T12:44:21.781Z,100319.48
2023-05-10T12:46:48.821Z,100315.32
2023-05-10T12:49:15.693Z,100318.77
2023-05-10T12:51:42.553Z,100322.38
2023-05-10T12:54:09.676Z,100316.46
2023-05-10T12:56:36.573Z,100306.87
2023-05-10T12:59:03.640Z,100310.42
2023-05-10T13:01:30.479Z,100309.00
2023-05-10T13:03:57.272Z,100303.66
2023-05-10T13:06:24.429Z,100304.04
2023-05-10T13:08:51.325Z,100298.33
2023-05-10T13:11:18.626Z,100294.88
2023-05-10T13:13:45.867Z,100293.17
2023-05-10T13:16:12.855Z,100296.12
2023-05-10T13:18:39.845Z,100291.30
2023-05-10T13:21:06.847Z,100287.37
2023-05-10T13:23:33.776Z,100292.44
2023-05-10T13:26:00.806Z,100300.09
2023-05-10T13:28:27.783Z,100288.31
2023-05-10T13:30:54.667Z,100296.12
2023-05-10T13:33:21.462Z,100296.80
2023-05-10T13:35:48.311Z,100295.23
2023-05-10T13:38:15.207Z,100294.89
2023-05-10T13:40:42.036Z,100295.73
2023-05-10T13:43:08.924Z,100293.99
2023-05-10T13:45:35.888Z,100301.08
2023-05-10T13:48:02.793Z,100303.50
2023-05-10T13:50:29.722Z,100304.70
2023-05-10T13:52:56.651Z,100302.09
2023-05-10T13:56:20.677Z,100302.26
2023-05-10T13:59:03.282Z,100304.49
2023-05-10T14:01:30.406Z,100303.47
2023-05-10T14:03:57.611Z,100304.86
2023-05-10T14:06:24.670Z,100306.59
2023-05-10T14:08:51.676Z,100303.80
2023-05-10T14:11:18.690Z,100298.77
2023-05-10T14:13:45.659Z,100301.88
2023-05-10T14:16:12.812Z,100304.12
2023-05-10T14:18:39.765Z,100303.08
2023-05-10T14:21:07.181Z,100302.05
2023-05-10T14:23:34.067Z,100302.56
2023-05-10T14:26:01.001Z,100300.48
2023-05-10T14:28:27.963Z,100300.13
2023-05-10T14:30:54.846Z,100297.19
2023-05-10T14:33:22.072Z,100295.63
2023-05-10T14:35:49.028Z,100294.76
2023-05-10T14:38:15.898Z,100294.77
2023-05-10T14:40:43.773Z,100294.09
2023-05-10T14:43:10.579Z,100297.02
2023-05-10T14:45:39.896Z,100292.16
2023-05-10T14:48:06.986Z,100294.75
2023-05-10T14:50:36.836Z,100295.61
2023-05-10T14:53:38.590Z,100291.45
2023-05-10T14:56:05.972Z,100287.11
2023-05-10T14:58:34.261Z,100287.10
2023-05-10T15:01:01.869Z,100285.71
2023-05-10T15:03:29.808Z,100285.89
2023-05-10T15:05:58.908Z,100280.54
2023-05-10T15:08:26.034Z,100280.37
2023-05-10T15:10:53.048Z,100279.33
2023-05-10T15:13:20.012Z,100277.76
2023-05-10T15:15:47.086Z,100274.30
2023-05-10T15:18:14.059Z,100278.09
2023-05-10T15:20:40.894Z,100275.31
2023-05-10T15:23:07.696Z,100277.55
2023-05-10T15:25:38.644Z,100274.63
2023-05-10T15:28:05.554Z,100275.69
2023-05-10T15:30:32.454Z,100276.04
2023-05-10T15:32:59.350Z,100272.75
2023-05-10T15:35:27.341Z,100269.30
2023-05-10T15:37:54.191Z,100273.98
2023-05-10T15:40:21.025Z,100271.03
2023-05-10T15:42:47.894Z,100267.05
2023-05-10T15:45:14.901Z,100266.02
2023-05-10T15:47:41.835Z,100267.03
2023-05-10T15:50:09.782Z,100266.67
2023-05-10T15:52:37.324Z,100264.44
2023-05-10T15:55:04.653Z,100262.89
2023-05-10T15:57:31.584Z,100262.38
2023-05-10T15:59:58.571Z,100265.16
2023-05-10T16:02:25.676Z,100267.94
2023-05-10T16:04:52.682Z,100266.56
2023-05-10T16:07:19.592Z,100264.50
2023-05-10T16:09:46.738Z,100265.04
2023-05-10T16:12:16.404Z,100269.70
2023-05-10T16:14:43.252Z,100270.91
2023-05-10T16:17:10.428Z,100265.19
2023-05-10T16:19:37.749Z,100267.77
2023-05-10T16:22:05.019Z,100268.63
2023-05-10T16:24:31.922Z,100270.52
2023-05-10T16:26:58.775Z,100268.42
2023-05-10T16:29:26.444Z,100273.44
2023-05-10T16:31:53.622Z,100274.65
2023-05-10T16:34:24.651Z,100276.55
2023-05-10T16:36:51.758Z,100276.73
2023-05-10T16:39:18.600Z,100280.48
2023-05-10T16:41:45.507Z,100278.20
2023-05-10T16:44:12.432Z,100277.33
2023-05-10T16:46:39.460Z,100277.30
2023-05-10T16:52:28.174Z,100277.98
2023-05-10T16:54:55.747Z,100281.95
2023-05-10T16:57:22.502Z,100283.31
2023-05-10T16:59:49.400Z,100283.65
2023-05-10T17:02:16.918Z,100283.98
2023-05-10T17:04:43.820Z,100288.09
2023-05-10T17:07:11.029Z,100289.98
2023-05-10T17:09:37.736Z,100291.34
2023-05-10T17:12:04.650Z,100290.80
2023-05-10T17:14:31.425Z,100292.86
2023-05-10T17:16:58.240Z,100295.61
2023-05-10T17:19:26.376Z,100296.64
2023-05-10T17:21:53.154Z,100300.93
2023-05-10T17:24:20.017Z,100298.49
2023-05-10T17:26:46.709Z,100301.24
2023-05-10T17:29:14.115Z,100302.27
2023-05-10T17:31:40.950Z,100302.89
2023-05-10T17:34:07.667Z,100306.63
2023-05-10T17:36:34.462Z,100306.23
2023-05-10T17:39:01.352Z,100309.47
2023-05-10T17:41:28.701Z,100312.73
2023-05-10T17:43:55.394Z,100312.51
2023-05-10T17:46:22.505Z,100316.10
2023-05-10T17:48:49.425Z,100315.91
2023-05-10T17:51:16.112Z,100322.23
2023-05-10T17:53:42.844Z,100324.06
2023-05-10T17:56:09.692Z,100327.10
2023-05-10T17:58:38.456Z,100331.36
2023-05-10T18:01:05.400Z,100333.73
2023-05-10T18:03:32.141Z,100338.84
2023-05-10T18:05:58.856Z,100336.54
2023-05-10T18:08:27.440Z,100338.00
2023-05-10T18:10:54.218Z,100345.98
2023-05-10T18:13:20.965Z,100346.55
2023-05-10T18:15:48.288Z,100346.77
2023-05-10T18:18:14.986Z,100349.59
2023-05-10T18:20:41.671Z,100349.16
2023-05-10T18:23:08.348Z,100352.84
2023-05-10T18:25:35.040Z,100355.36
2023-05-10T18:28:01.832Z,100354.91
2023-05-10T18:30:28.573Z,100352.08
2023-05-10T18:32:55.753Z,100358.67
2023-05-10T18:35:22.807Z,100358.55
2023-05-10T18:37:49.748Z,100357.79
2023-05-10T18:40:17.130Z,100358.75
2023-05-10T18:42:44.210Z,100359.16
2023-05-10T18:45:12.480Z,100359.75
2023-05-10T18:47:39.253Z,100358.59
2023-05-10T18:50:06.483Z,100363.14
2023-05-10T18:52:33.215Z,100362.04
2023-05-10T18:54:59.903Z,100364.23
2023-05-10T18:57:26.574Z,100361.57
2023-05-10T18:59:53.324Z,100358.39
2023-05-10T19:02:20.045Z,100360.08
2023-05-10T19:04:46.813Z,100364.11
2023-05-10T19:07:13.528Z,100364.50
2023-05-10T19:09:40.257Z,100363.36
2023-05-10T19:12:06.963Z,100369.27
2023-05-10T19:14:33.690Z,100369.26
2023-05-10T19:17:02.547Z,100368.60
2023-05-10T19:19:29.820Z,100372.22
2023-05-10T19:21:56.529Z,100371.54
2023-05-10T19:24:25.864Z,100371.63
2023-05-10T19:26:53.017Z,100371.39
2023-05-10T19:29:19.712Z,100376.67
2023-05-10T19:31:46.631Z,100377.83
2023-05-10T19:34:13.532Z,100378.77
2023-05-10T19:36:40.519Z,100378.34
2023-05-10T19:39:07.335Z,100374.63
2023-05-10T19:41:34.052Z,100378.52
2023-05-10T19:44:01.261Z,100374.19
2023-05-10T19:46:28.030Z,100377.73
2023-05-10T19:48:54.863Z,100374.39
2023-05-10T19:51:21.761Z,100377.61
2023-05-10T19:53:48.510Z,100378.22
2023-05-10T19:56:16.612Z,100377.45
2023-05-10T19:58:44.333Z,100378.23
2023-05-10T20:01:11.788Z,100377.80
2023-05-10T20:03:38.703Z,100375.99
2023-05-10T20:06:05.582Z,100377.77
2023-05-10T20:08:32.289Z,100373.91
2023-05-10T20:11:00.775Z,100378.19
2023-05-10T20:13:27.497Z,100378.76
2023-05-10T20:15:58.126Z,100381.44
2023-05-10T20:18:25.042Z,100386.35
2023-05-10T20:20:59.254Z,100384.04
2023-05-10T20:23:26.080Z,100380.73
2023-05-10T20:25:53.771Z,100378.81
2023-05-10T20:28:22.841Z,100382.55
2023-05-10T20:30:53.464Z,100380.30
2023-05-10T20:33:21.249Z,100382.52
2023-05-10T20:35:47.972Z,100380.28
2023-05-10T20:38:14.644Z,100377.91
2023-05-10T20:40:41.653Z,100381.81
2023-05-10T20:43:08.346Z,100375.75
2023-05-10T20:45:37.487Z,100378.45
2023-05-10T20:48:04.795Z,100376.84
2023-05-10T20:50:31.544Z,100376.67
2023-05-10T20:52:58.283Z,100378.31
2023-05-10T20:55:25.056Z,100375.96
2023-05-10T20:57:51.739Z,100378.73
2023-05-10T21:00:18.802Z,100379.07
2023-05-10T21:02:46.388Z,100380.53
2023-05-10T21:05:13.268Z,100382.42
2023-05-10T21:07:40.320Z,100381.86
2023-05-10T21:10:08.318Z,100384.44
2023-05-10T21:12:35.181Z,100383.64
2023-05-10T21:15:03.211Z,100387.23
2023-05-10T21:17:30.184Z,100383.02
2023-05-10T21:19:57.030Z,100385.25
2023-05-10T21:22:23.879Z,100383.09
2023-05-10T21:24:50.761Z,100382.80
2023-05-10T21:27:17.541Z,100378.16
2023-05-10T21:29:44.431Z,100382.95
2023-05-10T21:32:11.601Z,100381.41
2023-05-10T21:34:38.868Z,100382.45
2023-05-10T21:37:05.748Z,100385.66
2023-05-10T21:39:32.727Z,100382.17
2023-05-10T21:42:00.532Z,100386.71
2023-05-10T21:44:27.576Z,100386.02
2023-05-10T21:46:54.594Z,100384.61
2023-05-10T21:49:21.537Z,100386.23
2023-05-10T21:51:48.747Z,100386.62
2023-05-10T21:54:15.635Z,100387.83
2023-05-10T21:56:42.461Z,100384.84
2023-05-10T21:59:09.497Z,100380.17
2023-05-10T22:01:36.453Z,100384.90
2023-05-10T22:04:03.936Z,100383.60
2023-05-10T22:06:30.922Z,100382.52
2023-05-10T22:08:57.679Z,100383.79
2023-05-10T22:11:24.460Z,100383.88
2023-05-10T22:13:51.344Z,100382.63
2023-05-10T22:16:18.312Z,100385.39
2023-05-10T22:18:45.161Z,100388.30
2023-05-10T22:21:11.924Z,100386.06
2023-05-10T22:23:38.701Z,100385.87
2023-05-10T22:26:05.645Z,100391.72
2023-05-10T22:28:32.626Z,100390.86
2023-05-10T22:30:59.475Z,100392.38
2023-05-10T22:33:26.423Z,100387.98
2023-05-10T22:35:53.413Z,100390.38
2023-05-10T22:38:20.340Z,100392.55
2023-05-10T22:40:47.354Z,100391.24
2023-05-10T22:43:14.232Z,100393.11
2023-05-10T22:45:41.151Z,100389.52
2023-05-10T22:48:09.498Z,100387.58
2023-05-10T22:50:37.202Z,100386.45
2023-05-10T22:53:04.437Z,100383.53
2023-05-10T22:55:31.580Z,100383.41
2023-05-10T22:57:59.025Z,100384.96
2023-05-10T23:00:28.585Z,100385.45
2023-05-10T23:02:55.962Z,100381.63
2023-05-10T23:05:23.002Z,100383.92
2023-05-10T23:07:53.698Z,100385.86
2023-05-10T23:10:23.216Z,100388.66
2023-05-10T23:12:50.724Z,100383.77
2023-05-10T23:15:17.722Z,100389.31
2023-05-10T23:17:48.190Z,100389.68
2023-05-10T23:20:16.178Z,100387.58
2023-05-10T23:22:49.481Z,100386.20
2023-05-10T23:25:19.241Z,100391.30
2023-05-10T23:27:46.448Z,100393.19
2023-05-10T23:30:17.134Z,100393.71
2023-05-10T23:32:44.763Z,100397.63
2023-05-10T23:35:12.120Z,100396.46
2023-05-10T23:37:42.357Z,100397.38
2023-05-10T23:40:10.077Z,100400.34
2023-05-10T23:42:37.262Z,100403.64
2023-05-10T23:45:04.765Z,100402.00
2023-05-10T23:47:34.063Z,100403.21
2023-05-10T23:50:01.665Z,100407.02
2023-05-10T23:52:28.738Z,100406.88
2023-05-10T23:54:56.084Z,100412.73
2023-05-10T23:57:25.876Z,100405.22
2023-05-10T23:59:53.222Z,100408.51
